createdAt,value
2022-10-09T00:02:23.889Z,64.12
2022-10-09T00:05:31.370Z,64.17
2022-10-09T00:08:39.406Z,63.18
2022-10-09T00:11:46.012Z,62.61
2022-10-09T00:14:52.791Z,62.58
2022-10-09T00:17:59.400Z,62.85
2022-10-09T00:21:06.865Z,62.27
2022-10-09T00:24:15.715Z,62.26
2022-10-09T00:27:24.506Z,62.39
2022-10-09T00:30:31.876Z,62.51
2022-10-09T00:33:39.440Z,62.87
2022-10-09T00:36:48.410Z,63.45
2022-10-09T00:39:55.174Z,63.45
2022-10-09T00:43:02.308Z,63.07
2022-10-09T00:46:16.847Z,63.77
2022-10-09T00:49:28.999Z,63.46
2022-10-09T00:52:35.948Z,63.86
2022-10-09T00:55:44.060Z,64.08
2022-10-09T00:58:56.270Z,62.87
2022-10-09T01:02:03.518Z,64.09
2022-10-09T01:05:12.030Z,64.03
2022-10-09T01:08:26.244Z,64.90
2022-10-09T01:11:42.480Z,66.46
2022-10-09T01:14:57.873Z,65.64
2022-10-09T01:18:09.175Z,63.90
2022-10-09T01:21:19.681Z,63.01
2022-10-09T01:24:31.162Z,63.51
2022-10-09T01:27:39.072Z,63.78
2022-10-09T01:30:47.189Z,64.24
2022-10-09T01:33:53.998Z,63.81
2022-10-09T01:37:02.065Z,62.98
2022-10-09T01:40:12.064Z,62.11
2022-10-09T01:43:19.263Z,61.43
2022-10-09T01:46:29.211Z,62.63
2022-10-09T01:49:52.906Z,62.17
2022-10-09T01:53:02.302Z,62.39
2022-10-09T01:56:15.148Z,62.25
2022-10-09T01:59:23.457Z,62.52
2022-10-09T02:02:30.933Z,62.57
2022-10-09T02:05:38.530Z,61.86
2022-10-09T02:08:48.099Z,62.36
2022-10-09T02:11:58.627Z,61.85
2022-10-09T02:15:05.465Z,61.57
2022-10-09T02:18:16.005Z,61.17
2022-10-09T02:21:27.435Z,61.36
2022-10-09T02:24:34.876Z,61.83
2022-10-09T02:27:41.982Z,62.12
2022-10-09T02:30:55.625Z,61.82
2022-10-09T02:34:05.671Z,62.66
2022-10-09T02:37:12.351Z,62.39
2022-10-09T02:40:19.405Z,62.57
2022-10-09T02:43:26.117Z,61.95
2022-10-09T02:46:32.947Z,62.19
2022-10-09T02:49:40.062Z,61.63
2022-10-09T02:52:47.099Z,61.32
2022-10-09T02:55:53.994Z,61.23
2022-10-09T02:59:00.852Z,60.32
2022-10-09T03:02:07.723Z,61.55
2022-10-09T03:05:14.302Z,60.64
2022-10-09T03:08:20.865Z,61.08
2022-10-09T03:11:28.096Z,61.85
2022-10-09T03:14:35.284Z,62.20
2022-10-09T03:17:42.036Z,62.11
2022-10-09T03:20:49.097Z,62.11
2022-10-09T03:23:56.581Z,63.07
2022-10-09T03:27:03.257Z,63.44
2022-10-09T03:30:12.232Z,64.15
2022-10-09T03:33:18.790Z,64.31
2022-10-09T03:36:25.312Z,64.38
2022-10-09T03:39:32.332Z,65.40
2022-10-09T03:42:38.993Z,64.43
2022-10-09T03:45:45.812Z,63.87
2022-10-09T03:48:52.509Z,64.18
2022-10-09T03:51:59.075Z,63.38
2022-10-09T03:55:07.120Z,63.40
2022-10-09T03:58:13.908Z,63.42
2022-10-09T04:01:20.787Z,63.08
2022-10-09T04:04:28.052Z,62.87
2022-10-09T04:07:34.914Z,62.24
2022-10-09T04:10:41.561Z,62.40
2022-10-09T04:13:48.293Z,61.89
2022-10-09T04:16:55.070Z,61.57
2022-10-09T04:20:01.661Z,61.22
2022-10-09T04:23:08.233Z,60.60
2022-10-09T04:26:15.677Z,60.34
2022-10-09T04:29:22.380Z,59.33
2022-10-09T04:32:29.129Z,59.58
2022-10-09T04:35:35.583Z,64.47
2022-10-09T04:38:42.356Z,66.17
2022-10-09T04:41:49.007Z,64.09
2022-10-09T04:44:55.703Z,61.55
2022-10-09T04:48:02.599Z,62.46
2022-10-09T04:51:10.472Z,62.10
2022-10-09T04:54:17.036Z,62.24
2022-10-09T04:57:23.707Z,61.15
2022-10-09T05:00:30.298Z,59.94
2022-10-09T05:03:37.893Z,59.32
2022-10-09T05:06:44.452Z,63.86
2022-10-09T05:09:51.310Z,66.05
2022-10-09T05:12:57.809Z,65.01
2022-10-09T05:16:07.347Z,62.70
2022-10-09T05:19:12.468Z,63.43
2022-10-09T05:22:19.197Z,63.55
2022-10-09T05:25:26.036Z,62.17
2022-10-09T05:28:33.093Z,62.79
2022-10-09T05:31:39.905Z,61.92
2022-10-09T05:34:46.616Z,62.03
2022-10-09T05:37:53.359Z,61.17
2022-10-09T05:41:01.349Z,59.56
2022-10-09T05:44:08.946Z,59.58
2022-10-09T05:47:17.981Z,61.61
2022-10-09T05:50:24.943Z,67.43
2022-10-09T05:53:32.090Z,66.75
2022-10-09T05:56:40.360Z,64.48
2022-10-09T05:59:47.294Z,63.09
2022-10-09T06:02:53.958Z,62.32
2022-10-09T06:06:03.753Z,61.43
2022-10-09T06:09:11.900Z,59.93
2022-10-09T06:12:18.531Z,59.85
2022-10-09T06:15:25.080Z,64.69
2022-10-09T06:18:31.686Z,65.91
2022-10-09T06:21:38.244Z,65.19
2022-10-09T06:24:44.960Z,64.58
2022-10-09T06:27:51.709Z,63.40
2022-10-09T06:31:03.669Z,63.20
2022-10-09T06:34:12.260Z,62.74
2022-10-09T06:37:18.759Z,62.54
2022-10-09T06:40:25.524Z,62.58
2022-10-09T06:43:32.273Z,62.96
2022-10-09T06:46:41.095Z,65.45
2022-10-09T06:49:47.698Z,65.33
2022-10-09T06:52:54.285Z,66.46
2022-10-09T06:56:01.026Z,65.60
2022-10-09T06:59:08.630Z,65.85
2022-10-09T07:02:15.288Z,65.35
2022-10-09T07:05:21.970Z,65.05
2022-10-09T07:08:28.669Z,67.18
2022-10-09T07:11:36.933Z,67.31
2022-10-09T07:14:43.537Z,67.13
2022-10-09T07:17:50.234Z,67.22
2022-10-09T07:20:57.302Z,66.80
2022-10-09T07:24:04.702Z,68.02
2022-10-09T07:27:11.364Z,67.83
2022-10-09T07:30:18.146Z,68.36
2022-10-09T07:33:24.813Z,68.15
2022-10-09T07:36:31.684Z,68.82
2022-10-09T07:39:42.894Z,69.43
2022-10-09T07:42:51.757Z,67.63
2022-10-09T07:46:02.275Z,68.93
2022-10-09T07:49:09.101Z,70.05
2022-10-09T07:52:15.765Z,70.39
2022-10-09T07:55:22.449Z,70.04
2022-10-09T07:58:29.096Z,70.46
2022-10-09T08:01:37.091Z,70.33
2022-10-09T08:04:43.682Z,69.87
2022-10-09T08:07:50.384Z,70.09
2022-10-09T08:10:57.142Z,70.04
2022-10-09T08:14:03.771Z,69.23
2022-10-09T08:17:10.465Z,68.80
2022-10-09T08:20:17.307Z,67.10
2022-10-09T08:23:23.943Z,67.86
2022-10-09T08:26:31.987Z,66.93
2022-10-09T08:29:40.376Z,67.28
2022-10-09T08:32:47.379Z,66.91
2022-10-09T08:35:55.128Z,67.96
2022-10-09T08:39:02.133Z,67.16
2022-10-09T08:42:19.378Z,67.15
2022-10-09T08:45:26.039Z,66.22
2022-10-09T08:48:37.973Z,66.87
2022-10-09T08:51:46.336Z,66.31
2022-10-09T08:54:54.119Z,65.68
2022-10-09T08:58:05.767Z,65.65
2022-10-09T09:01:22.583Z,64.91
2022-10-09T09:04:39.686Z,64.76
2022-10-09T09:07:55.799Z,64.14
2022-10-09T09:11:21.680Z,63.18
2022-10-09T09:14:43.551Z,63.21
2022-10-09T09:17:59.867Z,61.98
2022-10-09T09:21:14.691Z,61.20
2022-10-09T09:24:23.224Z,61.13
2022-10-09T09:27:33.197Z,61.27
2022-10-09T09:30:45.691Z,60.84
2022-10-09T09:33:58.606Z,60.14
2022-10-09T09:37:05.657Z,60.35
2022-10-09T09:40:36.184Z,60.12
2022-10-09T09:43:44.007Z,59.37
2022-10-09T09:46:51.863Z,62.44
2022-10-09T09:50:01.164Z,62.86
2022-10-09T09:53:08.509Z,60.88
2022-10-09T09:56:15.667Z,59.93
2022-10-09T09:59:38.075Z,58.58
2022-10-09T10:02:44.904Z,60.50
2022-10-09T10:05:52.092Z,62.93
2022-10-09T10:09:03.865Z,59.99
2022-10-09T10:12:19.541Z,59.95
2022-10-09T10:15:29.757Z,61.71
2022-10-09T10:18:42.635Z,61.63
2022-10-09T10:21:56.287Z,58.62
2022-10-09T10:25:03.471Z,59.84
2022-10-09T10:28:19.101Z,59.75
2022-10-09T10:31:41.374Z,60.51
2022-10-09T10:34:53.696Z,59.42
2022-10-09T10:38:06.839Z,60.64
2022-10-09T10:41:21.044Z,61.46
2022-10-09T10:44:38.631Z,61.42
2022-10-09T10:47:50.223Z,57.85
2022-10-09T10:51:07.711Z,57.05
2022-10-09T10:54:29.542Z,56.77
2022-10-09T10:57:44.428Z,58.43
2022-10-09T11:01:05.413Z,58.88
2022-10-09T11:04:29.968Z,59.66
2022-10-09T11:07:43.114Z,58.79
2022-10-09T11:11:00.487Z,58.87
2022-10-09T11:14:20.197Z,58.60
2022-10-09T11:17:34.814Z,58.28
2022-10-09T11:20:56.217Z,57.77
2022-10-09T11:24:24.124Z,57.21
2022-10-09T11:27:39.061Z,56.19
2022-10-09T11:30:52.337Z,53.38
2022-10-09T11:34:04.548Z,54.87
2022-10-09T11:37:17.515Z,55.32
2022-10-09T11:40:27.767Z,55.35
2022-10-09T11:43:47.866Z,56.03
2022-10-09T11:47:02.025Z,55.99
2022-10-09T11:50:27.061Z,56.35
2022-10-09T11:53:37.000Z,55.06
2022-10-09T11:56:55.600Z,55.02
2022-10-09T12:00:11.254Z,55.13
2022-10-09T12:03:30.158Z,55.13
2022-10-09T12:06:48.349Z,53.81
2022-10-09T12:10:01.529Z,53.87
2022-10-09T12:13:28.313Z,55.27
2022-10-09T12:16:42.473Z,53.21
2022-10-09T12:19:51.207Z,53.51
2022-10-09T12:23:25.109Z,54.80
2022-10-09T12:26:29.070Z,55.21
2022-10-09T12:29:41.684Z,54.95
2022-10-09T12:32:52.674Z,53.45
2022-10-09T12:36:06.322Z,53.04
2022-10-09T12:39:20.425Z,53.73
2022-10-09T12:42:28.034Z,52.69
2022-10-09T12:45:34.931Z,52.49
2022-10-09T12:48:43.752Z,52.56
2022-10-09T12:51:56.430Z,52.49
2022-10-09T12:55:03.740Z,52.38
2022-10-09T12:58:17.609Z,53.18
2022-10-09T13:01:24.979Z,54.00
2022-10-09T13:04:34.964Z,53.64
2022-10-09T13:07:45.344Z,53.20
2022-10-09T13:10:55.690Z,53.07
2022-10-09T13:14:03.006Z,53.34
2022-10-09T13:17:26.525Z,53.84
2022-10-09T13:20:34.309Z,53.03
2022-10-09T13:23:40.937Z,53.00
2022-10-09T13:26:47.602Z,51.48
2022-10-09T13:29:54.275Z,51.11
2022-10-09T13:33:01.127Z,50.42
2022-10-09T13:36:08.611Z,51.55
2022-10-09T13:39:16.593Z,52.68
2022-10-09T13:42:25.139Z,52.36
2022-10-09T13:45:31.801Z,52.09
2022-10-09T13:48:39.594Z,51.55
2022-10-09T13:51:46.256Z,50.54
2022-10-09T13:54:52.776Z,50.69
2022-10-09T13:57:59.459Z,51.12
2022-10-09T14:01:06.301Z,50.98
2022-10-09T14:04:13.057Z,51.01
2022-10-09T14:07:19.664Z,50.30
2022-10-09T14:10:26.821Z,50.06
2022-10-09T14:13:33.492Z,50.18
2022-10-09T14:16:40.278Z,50.84
2022-10-09T14:19:46.871Z,50.38
2022-10-09T14:22:53.570Z,50.02
2022-10-09T14:26:05.144Z,48.94
2022-10-09T14:29:11.978Z,49.96
2022-10-09T14:32:18.619Z,49.80
2022-10-09T14:35:25.388Z,50.24
2022-10-09T14:38:32.015Z,50.56
2022-10-09T14:41:40.215Z,50.38
2022-10-09T14:44:46.819Z,50.77
2022-10-09T14:47:53.457Z,51.24
2022-10-09T14:51:04.830Z,51.79
2022-10-09T14:54:12.206Z,52.33
2022-10-09T14:57:19.254Z,53.25
2022-10-09T15:00:25.852Z,53.39
2022-10-09T15:03:33.264Z,53.27
2022-10-09T15:06:39.814Z,53.34
2022-10-09T15:09:46.479Z,53.20
2022-10-09T15:12:55.733Z,52.54
2022-10-09T15:16:03.947Z,51.85
2022-10-09T15:19:10.621Z,51.35
2022-10-09T15:22:17.409Z,50.09
2022-10-09T15:25:25.338Z,48.70
2022-10-09T15:28:32.017Z,49.78
2022-10-09T15:31:41.227Z,48.59
2022-10-09T15:34:46.454Z,47.60
2022-10-09T15:37:55.679Z,48.43
2022-10-09T15:41:02.689Z,48.80
2022-10-09T15:44:14.204Z,48.77
2022-10-09T15:47:39.330Z,49.59
2022-10-09T15:50:51.643Z,50.18
2022-10-09T15:53:59.957Z,52.01
2022-10-09T15:57:09.665Z,53.14
2022-10-09T16:00:17.631Z,53.93
2022-10-09T16:03:24.145Z,55.66
2022-10-09T16:06:30.848Z,56.29
2022-10-09T16:09:38.009Z,57.51
2022-10-09T16:12:44.653Z,58.17
2022-10-09T16:15:51.573Z,58.87
2022-10-09T16:19:00.187Z,60.34
2022-10-09T16:22:07.021Z,61.25
2022-10-09T16:25:14.237Z,64.01
2022-10-09T16:28:20.883Z,69.14
2022-10-09T16:31:31.409Z,67.41
2022-10-09T16:34:38.142Z,64.26
2022-10-09T16:37:45.064Z,61.94
2022-10-09T16:41:07.862Z,57.90
2022-10-09T16:44:17.009Z,57.12
2022-10-09T16:47:23.596Z,59.01
2022-10-09T16:50:30.501Z,60.15
2022-10-09T16:53:37.430Z,61.33
2022-10-09T16:56:45.889Z,66.73
2022-10-09T16:59:52.540Z,67.20
2022-10-09T17:02:59.719Z,63.48
2022-10-09T17:06:12.097Z,61.01
2022-10-09T17:09:18.833Z,57.75
2022-10-09T17:12:25.438Z,57.76
2022-10-09T17:15:32.140Z,59.41
2022-10-09T17:18:39.622Z,61.12
2022-10-09T17:21:46.353Z,65.23
2022-10-09T17:24:53.100Z,66.47
2022-10-09T17:28:01.415Z,62.93
2022-10-09T17:31:16.272Z,60.36
2022-10-09T17:34:23.554Z,56.91
2022-10-09T17:37:30.107Z,57.34
2022-10-09T17:40:40.116Z,59.42
2022-10-09T17:43:47.049Z,60.98
2022-10-09T17:46:53.942Z,65.45
2022-10-09T17:50:00.616Z,67.34
2022-10-09T17:53:07.684Z,64.94
2022-10-09T17:56:15.341Z,62.45
2022-10-09T17:59:22.062Z,60.81
2022-10-09T18:02:28.847Z,57.86
2022-10-09T18:05:41.392Z,58.45
2022-10-09T18:08:48.368Z,60.49
2022-10-09T18:11:54.956Z,64.99
2022-10-09T18:15:02.813Z,66.28
2022-10-09T18:18:12.690Z,63.38
2022-10-09T18:21:19.621Z,61.69
2022-10-09T18:24:26.343Z,59.68
2022-10-09T18:27:33.431Z,57.38
2022-10-09T18:30:46.068Z,58.39
2022-10-09T18:33:53.601Z,59.99
2022-10-09T18:37:00.271Z,65.22
2022-10-09T18:40:10.773Z,67.51
2022-10-09T18:43:17.348Z,66.02
2022-10-09T18:46:26.599Z,63.63
2022-10-09T18:49:33.724Z,61.95
2022-10-09T18:52:42.699Z,61.43
2022-10-09T18:55:49.399Z,60.03
2022-10-09T18:58:56.481Z,57.31
2022-10-09T19:02:03.131Z,58.03
2022-10-09T19:05:10.771Z,59.84
2022-10-09T19:08:17.563Z,64.07
2022-10-09T19:11:24.214Z,67.36
2022-10-09T19:14:30.948Z,64.66
2022-10-09T19:17:37.657Z,62.57
2022-10-09T19:20:44.357Z,61.29
2022-10-09T19:23:52.219Z,60.57
2022-10-09T19:26:59.427Z,59.61
2022-10-09T19:30:07.655Z,57.13
2022-10-09T19:33:14.607Z,58.13
2022-10-09T19:36:24.119Z,60.15
2022-10-09T19:39:29.438Z,64.59
2022-10-09T19:42:36.061Z,67.97
2022-10-09T19:45:43.189Z,64.68
2022-10-09T19:48:49.791Z,62.35
2022-10-09T19:51:56.819Z,60.64
2022-10-09T19:55:03.572Z,58.07
2022-10-09T19:58:10.303Z,57.99
2022-10-09T20:01:19.116Z,59.78
2022-10-09T20:04:26.045Z,61.50
2022-10-09T20:07:34.243Z,66.73
2022-10-09T20:10:41.697Z,68.59
2022-10-09T20:13:54.842Z,65.22
2022-10-09T20:17:03.108Z,62.84
2022-10-09T20:20:11.269Z,61.15
2022-10-09T20:23:18.073Z,59.95
2022-10-09T20:26:25.158Z,57.33
2022-10-09T20:29:31.810Z,58.11
2022-10-09T20:32:38.309Z,59.42
2022-10-09T20:35:45.813Z,65.38
2022-10-09T20:38:54.726Z,67.23
2022-10-09T20:42:01.258Z,64.52
2022-10-09T20:45:09.125Z,62.44
2022-10-09T20:48:15.721Z,60.97
2022-10-09T20:51:23.471Z,60.28
2022-10-09T20:54:30.437Z,57.70
2022-10-09T20:57:37.118Z,58.61
2022-10-09T21:00:45.523Z,60.51
2022-10-09T21:03:52.698Z,65.14
2022-10-09T21:06:59.443Z,67.31
2022-10-09T21:10:07.299Z,64.92
2022-10-09T21:13:14.443Z,62.79
2022-10-09T21:16:23.118Z,61.35
2022-10-09T21:19:30.201Z,60.16
2022-10-09T21:22:36.981Z,57.28
2022-10-09T21:25:49.427Z,57.90
2022-10-09T21:28:59.685Z,60.01
2022-10-09T21:32:07.089Z,65.66
2022-10-09T21:35:13.644Z,67.89
2022-10-09T21:38:21.773Z,65.14
2022-10-09T21:41:29.041Z,63.17
2022-10-09T21:44:35.820Z,61.65
2022-10-09T21:47:42.318Z,60.27
2022-10-09T21:50:48.831Z,57.95
2022-10-09T21:53:58.810Z,58.30
2022-10-09T21:57:05.845Z,59.64
2022-10-09T22:00:14.480Z,64.64
2022-10-09T22:03:21.159Z,67.57
2022-10-09T22:06:27.982Z,65.11
2022-10-09T22:09:34.874Z,63.35
2022-10-09T22:12:41.643Z,61.70
2022-10-09T22:15:51.196Z,60.34
2022-10-09T22:18:58.441Z,57.86
2022-10-09T22:22:05.617Z,58.05
2022-10-09T22:25:12.433Z,59.54
2022-10-09T22:28:21.916Z,64.76
2022-10-09T22:31:28.018Z,67.56
2022-10-09T22:34:35.420Z,65.80
2022-10-09T22:37:42.020Z,63.08
2022-10-09T22:40:48.543Z,61.26
2022-10-09T22:43:57.501Z,60.10
2022-10-09T22:47:04.426Z,57.67
2022-10-09T22:50:12.164Z,58.27
2022-10-09T22:53:18.826Z,60.40
2022-10-09T22:56:28.708Z,65.62
2022-10-09T22:59:35.928Z,68.00
2022-10-09T23:02:42.616Z,64.82
2022-10-09T23:05:49.346Z,62.37
2022-10-09T23:08:56.039Z,60.99
2022-10-09T23:12:03.041Z,60.07
2022-10-09T23:15:11.380Z,57.65
2022-10-09T23:18:18.029Z,58.27
2022-10-09T23:21:25.375Z,60.50
2022-10-09T23:24:32.108Z,65.81
2022-10-09T23:27:38.805Z,67.75
2022-10-09T23:30:45.515Z,64.58
2022-10-09T23:33:52.183Z,62.12
2022-10-09T23:36:58.945Z,60.90
2022-10-09T23:40:06.564Z,59.88
2022-10-09T23:43:13.229Z,57.24
2022-10-09T23:46:22.380Z,57.88
2022-10-09T23:49:29.077Z,59.81
2022-10-09T23:52:37.588Z,65.53
2022-10-09T23:55:44.505Z,68.17
2022-10-09T23:58:52.731Z,65.65
